Terminal Aerodrome Forecast
Issued by NWS Shreveport, LA

Home | Current Version | Previous Version | Text Only | Print | Product List | Glossary On
Versions: 1 2 3 4 5 6 7 8 9 10 11 12 13 14 15 16 17 18 19 20 21 22 23 24
000
FTUS44 KSHV 191738
TAFSHV
TAF
KSHV 191738Z 1918/2018 13010KT P6SM OVC015
      TEMPO 1919/1921 BKN025
     FM192100 15010KT P6SM SCT030 BKN250
     FM200600 14008KT P6SM BKN015 OVC025
     FM201200 16010KT P6SM BKN030 OVC100
      TEMPO 2015/2018 5SM SHRA BR OVC020=

USA.gov is the U.S. government's official web portal to all federal, state and local government web resources and services.